createdAt,value
2018-05-27T04:01:37.588Z,20.03
2018-05-27T04:04:15.857Z,18.20
2018-05-27T04:06:53.931Z,18.30
2018-05-27T04:09:19.701Z,19.70
2018-05-27T04:11:45.457Z,19.20
2018-05-27T04:14:11.217Z,19.50
2018-05-27T04:16:36.973Z,19.40
2018-05-27T04:19:02.732Z,19.90
2018-05-27T04:21:28.493Z,19.70
2018-05-27T04:23:54.270Z,19.77
2018-05-27T04:26:20.029Z,17.70
2018-05-27T04:28:45.777Z,19.50
2018-05-27T04:31:11.532Z,19.07
2018-05-27T04:33:37.292Z,17.90
2018-05-27T04:36:03.063Z,18.40
2018-05-27T04:38:28.833Z,19.50
2018-05-27T04:40:54.626Z,18.63
2018-05-27T04:43:20.380Z,17.27
2018-05-27T04:45:46.146Z,17.53
2018-05-27T04:48:11.887Z,18.90
2018-05-27T04:50:37.646Z,18.47
2018-05-27T04:53:03.405Z,18.37
2018-05-27T04:55:29.165Z,19.20
2018-05-27T04:57:54.926Z,18.97
2018-05-27T05:00:20.690Z,20.13
2018-05-27T05:02:46.441Z,18.70
2018-05-27T05:05:12.222Z,19.07
2018-05-27T05:07:37.981Z,19.47
2018-05-27T05:10:03.729Z,18.60
2018-05-27T05:12:29.494Z,18.50
2018-05-27T05:14:55.272Z,18.80
2018-05-27T05:17:21.009Z,16.40
2018-05-27T05:19:46.777Z,16.80
2018-05-27T05:22:12.588Z,17.80
2018-05-27T05:24:38.285Z,18.00
2018-05-27T05:27:04.045Z,17.47
2018-05-27T05:29:29.802Z,17.40
2018-05-27T05:31:55.565Z,18.33
2018-05-27T05:34:21.314Z,18.37
2018-05-27T05:36:47.070Z,19.07
2018-05-27T05:39:12.842Z,17.80
2018-05-27T05:41:38.600Z,18.93
2018-05-27T05:44:04.353Z,18.90
2018-05-27T05:46:30.117Z,18.90
2018-05-27T05:48:55.870Z,18.53
2018-05-27T05:51:21.653Z,17.27
2018-05-27T05:53:47.414Z,17.67
2018-05-27T05:56:13.173Z,17.87
2018-05-27T05:58:38.936Z,17.90
2018-05-27T06:01:04.694Z,17.10
2018-05-27T06:03:30.457Z,18.00
2018-05-27T06:05:56.205Z,16.43
2018-05-27T06:08:21.962Z,17.40
2018-05-27T06:10:47.714Z,16.77
2018-05-27T06:13:13.465Z,16.27
2018-05-27T06:15:39.220Z,18.50
2018-05-27T06:18:04.973Z,16.23
2018-05-27T06:20:30.720Z,16.60
2018-05-27T06:22:56.489Z,15.27
2018-05-27T06:25:22.242Z,14.63
2018-05-27T06:27:48.022Z,15.03
2018-05-27T06:30:13.775Z,14.83
2018-05-27T06:32:39.526Z,15.67
2018-05-27T06:35:05.308Z,14.37
2018-05-27T06:37:31.061Z,14.57
2018-05-27T06:39:56.821Z,15.17
2018-05-27T06:42:22.570Z,14.27
2018-05-27T06:44:48.338Z,14.27
2018-05-27T06:47:14.081Z,14.10
2018-05-27T06:49:39.850Z,14.30
2018-05-27T06:52:05.600Z,14.30
2018-05-27T06:54:31.365Z,13.10
2018-05-27T06:56:57.136Z,13.43
2018-05-27T06:59:22.903Z,13.73
2018-05-27T07:01:48.669Z,11.70
2018-05-27T07:04:14.462Z,13.10
2018-05-27T07:06:40.226Z,12.20
2018-05-27T07:09:05.983Z,12.10
2018-05-27T07:11:31.824Z,12.33
2018-05-27T07:13:57.605Z,12.20
2018-05-27T07:16:23.383Z,11.80
2018-05-27T07:18:49.134Z,10.83
2018-05-27T07:21:14.958Z,11.03
2018-05-27T07:23:40.725Z,10.90
2018-05-27T07:26:06.490Z,10.73
2018-05-27T07:28:32.265Z,11.63
2018-05-27T07:30:58.034Z,10.40
2018-05-27T07:33:23.798Z,10.20
2018-05-27T07:35:49.574Z,11.87
2018-05-27T07:38:15.333Z,11.97
2018-05-27T07:40:41.169Z,12.30
2018-05-27T07:43:06.889Z,11.60
2018-05-27T07:45:32.645Z,11.10
2018-05-27T07:47:58.405Z,10.57
2018-05-27T07:50:24.235Z,11.20
2018-05-27T07:52:49.958Z,11.07
2018-05-27T07:55:15.721Z,13.43
2018-05-27T07:57:41.493Z,11.10
2018-05-27T08:00:07.249Z,11.30
2018-05-27T08:02:33.014Z,10.90
2018-05-27T08:04:58.773Z,11.30
2018-05-27T08:07:24.566Z,11.70
2018-05-27T08:09:50.375Z,11.03
2018-05-27T08:12:16.136Z,11.27
2018-05-27T08:14:41.881Z,10.70
2018-05-27T08:17:07.658Z,11.03
2018-05-27T08:19:33.409Z,11.27
2018-05-27T08:21:59.185Z,10.33
2018-05-27T08:24:24.948Z,11.40
2018-05-27T08:26:50.714Z,10.20
2018-05-27T08:29:16.480Z,10.10
2018-05-27T08:31:42.238Z,11.00
2018-05-27T08:34:08.030Z,10.67
2018-05-27T08:36:33.798Z,9.97
2018-05-27T08:38:59.589Z,9.67
2018-05-27T08:41:25.344Z,9.03
2018-05-27T08:43:51.110Z,10.57
2018-05-27T08:46:16.881Z,9.30
2018-05-27T08:48:42.665Z,9.90
2018-05-27T08:51:08.426Z,8.97
2018-05-27T08:53:34.193Z,8.60
2018-05-27T08:55:59.998Z,9.10
2018-05-27T08:58:25.765Z,9.17
2018-05-27T09:00:51.576Z,9.80
2018-05-27T09:03:17.349Z,9.30
2018-05-27T09:05:43.119Z,7.83
2018-05-27T09:08:08.902Z,7.97
2018-05-27T09:10:34.689Z,8.73
2018-05-27T09:13:00.461Z,9.33
2018-05-27T09:15:26.253Z,8.20
2018-05-27T09:17:52.035Z,8.23
2018-05-27T09:20:17.789Z,8.00
2018-05-27T09:22:43.571Z,7.90
2018-05-27T09:25:09.360Z,6.70
2018-05-27T09:27:35.126Z,7.07
2018-05-27T09:30:00.905Z,6.30
2018-05-27T09:32:26.674Z,7.73
2018-05-27T09:34:52.442Z,6.20
2018-05-27T09:37:18.207Z,5.27
2018-05-27T09:39:43.989Z,5.80
2018-05-27T09:42:09.749Z,6.20
2018-05-27T09:44:35.531Z,5.23
2018-05-27T09:47:01.310Z,4.67
2018-05-27T09:49:27.059Z,4.77
2018-05-27T09:51:52.837Z,5.10
2018-05-27T09:54:18.601Z,6.33
2018-05-27T09:56:44.378Z,7.57
2018-05-27T09:59:10.166Z,6.10
2018-05-27T10:01:35.950Z,7.17
2018-05-27T10:04:01.717Z,5.90
2018-05-27T10:06:27.509Z,6.67
2018-05-27T10:08:53.285Z,6.67
2018-05-27T10:11:19.057Z,7.20
2018-05-27T10:13:45.617Z,7.53
2018-05-27T10:16:11.393Z,6.60
2018-05-27T10:18:37.155Z,8.23
2018-05-27T10:21:02.939Z,6.67
2018-05-27T10:23:28.704Z,6.93
2018-05-27T10:25:54.551Z,7.30
2018-05-27T10:28:20.267Z,6.47
2018-05-27T10:30:46.045Z,9.30
2018-05-27T10:33:11.806Z,6.77
2018-05-27T10:35:37.586Z,7.00
2018-05-27T10:38:03.358Z,6.77
2018-05-27T10:40:29.125Z,8.00
2018-05-27T10:42:54.913Z,7.27
2018-05-27T10:45:20.694Z,6.20
2018-05-27T10:47:46.479Z,5.73
2018-05-27T10:50:12.249Z,5.80
2018-05-27T10:52:38.038Z,6.70
2018-05-27T10:55:03.831Z,5.63
2018-05-27T10:57:29.617Z,5.33
2018-05-27T10:59:55.397Z,5.67
2018-05-27T11:02:21.185Z,5.07
2018-05-27T11:04:46.979Z,5.30
2018-05-27T11:07:12.746Z,5.23
2018-05-27T11:09:38.513Z,5.30
2018-05-27T11:12:04.299Z,4.87
2018-05-27T11:14:30.078Z,4.40
2018-05-27T11:16:55.858Z,5.50
2018-05-27T11:19:21.633Z,5.93
2018-05-27T11:21:47.427Z,5.53
2018-05-27T11:24:13.203Z,6.27
2018-05-27T11:26:38.974Z,5.93
2018-05-27T11:29:04.791Z,5.17
2018-05-27T11:31:30.554Z,5.53
2018-05-27T11:33:56.341Z,5.00
2018-05-27T11:36:22.114Z,5.90
2018-05-27T11:38:47.889Z,5.97
2018-05-27T11:41:13.718Z,6.27
2018-05-27T11:43:39.516Z,4.90
2018-05-27T11:46:05.353Z,5.20
2018-05-27T11:48:31.140Z,5.50
2018-05-27T11:50:56.925Z,5.00
2018-05-27T11:53:22.757Z,5.63
2018-05-27T11:55:48.533Z,5.03
2018-05-27T11:58:14.339Z,5.30
2018-05-27T12:00:40.110Z,5.20
2018-05-27T12:03:05.890Z,5.10
2018-05-27T12:05:31.658Z,4.80
2018-05-27T12:07:57.417Z,5.23
2018-05-27T12:10:23.196Z,4.87
2018-05-27T12:12:48.965Z,5.00
2018-05-27T12:15:14.774Z,5.60
2018-05-27T12:17:40.533Z,5.00
2018-05-27T12:20:06.306Z,4.83
2018-05-27T12:22:32.182Z,4.90
2018-05-27T12:24:57.966Z,4.77
2018-05-27T12:27:23.773Z,5.53
2018-05-27T12:29:49.613Z,5.07
2018-05-27T12:32:15.330Z,5.23
2018-05-27T12:34:41.106Z,5.90
2018-05-27T12:37:06.914Z,5.70
2018-05-27T12:39:32.698Z,4.60
2018-05-27T12:41:58.494Z,5.30
2018-05-27T12:44:24.269Z,5.70
2018-05-27T12:46:50.033Z,5.07
2018-05-27T12:49:15.810Z,5.20
2018-05-27T12:51:41.578Z,4.77
2018-05-27T12:54:07.352Z,4.93
2018-05-27T12:56:33.189Z,4.50
2018-05-27T12:58:58.955Z,4.93
2018-05-27T13:01:24.718Z,4.83
2018-05-27T13:03:50.547Z,4.90
2018-05-27T13:06:16.324Z,4.83
2018-05-27T13:08:42.165Z,4.57
2018-05-27T13:11:07.945Z,4.87
2018-05-27T13:13:33.702Z,5.00
2018-05-27T13:15:59.496Z,4.97
2018-05-27T13:18:25.275Z,5.07
2018-05-27T13:20:51.047Z,5.30
2018-05-27T13:23:16.817Z,5.27
2018-05-27T13:25:42.582Z,5.03
2018-05-27T13:28:08.349Z,5.00
2018-05-27T13:30:34.109Z,5.17
2018-05-27T13:32:59.887Z,5.20
2018-05-27T13:35:26.529Z,5.20
2018-05-27T13:37:52.306Z,5.93
2018-05-27T13:40:18.060Z,5.37
2018-05-27T13:42:43.819Z,6.03
2018-05-27T13:45:09.581Z,5.20
2018-05-27T13:47:35.361Z,5.93
2018-05-27T13:50:01.126Z,5.50
2018-05-27T13:52:26.881Z,5.80
2018-05-27T13:54:52.649Z,5.73
2018-05-27T13:57:18.402Z,5.20
2018-05-27T13:59:44.178Z,5.83
2018-05-27T14:02:09.952Z,5.70
2018-05-27T14:04:35.725Z,5.00
2018-05-27T14:07:01.497Z,5.63
2018-05-27T14:09:27.264Z,6.70
2018-05-27T14:11:53.042Z,6.90
2018-05-27T14:14:18.822Z,5.80
2018-05-27T14:16:44.594Z,6.10
2018-05-27T14:19:10.385Z,6.13
2018-05-27T14:21:36.165Z,6.60
2018-05-27T14:24:01.950Z,6.40
2018-05-27T14:26:27.725Z,7.00
2018-05-27T14:28:53.546Z,6.13
2018-05-27T14:31:19.322Z,7.63
2018-05-27T14:33:45.089Z,7.13
2018-05-27T14:36:10.866Z,7.70
2018-05-27T14:38:36.645Z,6.63
2018-05-27T14:41:02.418Z,5.93
2018-05-27T14:43:28.188Z,6.80
2018-05-27T14:45:53.958Z,9.03
2018-05-27T14:48:19.733Z,5.80
2018-05-27T14:50:45.525Z,6.60
2018-05-27T14:53:11.282Z,6.50
2018-05-27T14:55:37.063Z,7.03
2018-05-27T14:58:02.909Z,5.40
2018-05-27T15:00:28.630Z,6.57
2018-05-27T15:02:54.386Z,5.97
2018-05-27T15:05:20.173Z,7.40
2018-05-27T15:07:45.937Z,6.93
2018-05-27T15:10:11.697Z,5.77
2018-05-27T15:12:37.474Z,6.67
2018-05-27T15:15:03.250Z,5.97
2018-05-27T15:17:29.033Z,8.83
2018-05-27T15:19:54.785Z,6.50
2018-05-27T15:22:20.563Z,7.50
2018-05-27T15:24:46.326Z,6.10
2018-05-27T15:27:12.105Z,6.90
2018-05-27T15:29:37.880Z,6.80
2018-05-27T15:32:03.675Z,6.23
2018-05-27T15:34:29.465Z,8.53
2018-05-27T15:36:55.262Z,7.43
2018-05-27T15:39:21.031Z,8.10
2018-05-27T15:41:46.794Z,6.60
2018-05-27T15:44:12.554Z,7.17
2018-05-27T15:46:38.333Z,7.10
2018-05-27T15:49:04.130Z,5.40
2018-05-27T15:51:29.930Z,6.80
2018-05-27T15:53:55.736Z,7.07
2018-05-27T15:56:21.510Z,7.00
2018-05-27T15:58:47.277Z,7.03
2018-05-27T16:01:13.048Z,7.70
2018-05-27T16:03:38.830Z,7.20
2018-05-27T16:06:04.594Z,7.10
2018-05-27T16:08:30.369Z,7.60
2018-05-27T16:10:56.137Z,7.70
2018-05-27T16:13:21.901Z,7.10
2018-05-27T16:15:47.692Z,6.43
2018-05-27T16:18:13.469Z,7.20
2018-05-27T16:20:39.376Z,5.80
2018-05-27T16:23:05.228Z,7.00
2018-05-27T16:25:30.941Z,7.60
2018-05-27T16:27:56.720Z,6.87
2018-05-27T16:30:22.493Z,6.10
2018-05-27T16:32:48.257Z,7.90
2018-05-27T16:35:14.023Z,6.20
2018-05-27T16:37:39.795Z,7.30
2018-05-27T16:40:05.561Z,6.70
2018-05-27T16:42:31.326Z,7.47
2018-05-27T16:44:57.101Z,6.57
2018-05-27T16:47:22.861Z,6.63
2018-05-27T16:49:48.625Z,6.10
2018-05-27T16:52:14.393Z,6.50
2018-05-27T16:54:40.170Z,6.43
2018-05-27T16:57:05.925Z,7.40
2018-05-27T16:59:31.725Z,7.07
2018-05-27T17:01:57.486Z,7.47
2018-05-27T17:04:23.258Z,6.23
2018-05-27T17:06:49.013Z,6.10
2018-05-27T17:09:14.765Z,7.43
2018-05-27T17:11:40.550Z,7.00
2018-05-27T17:14:06.363Z,6.70
2018-05-27T17:16:32.081Z,7.20
2018-05-27T17:18:57.837Z,6.80
2018-05-27T17:21:23.610Z,6.90
2018-05-27T17:23:49.377Z,7.50
2018-05-27T17:26:15.150Z,7.30
2018-05-27T17:28:40.914Z,7.30
2018-05-27T17:31:06.675Z,7.10
2018-05-27T17:33:32.441Z,7.40
2018-05-27T17:35:58.251Z,7.00
2018-05-27T17:38:23.998Z,7.50
2018-05-27T17:40:49.779Z,7.07
2018-05-27T17:43:15.546Z,6.70
2018-05-27T17:45:41.366Z,7.23
2018-05-27T17:48:09.154Z,7.50
2018-05-27T17:50:34.933Z,6.63
2018-05-27T17:53:00.709Z,8.10
2018-05-27T17:55:26.488Z,7.60
2018-05-27T17:57:52.266Z,8.27
2018-05-27T18:00:18.035Z,7.53
2018-05-27T18:02:43.814Z,7.80
2018-05-27T18:05:09.573Z,8.10
2018-05-27T18:07:35.341Z,8.37
2018-05-27T18:10:01.114Z,8.70
2018-05-27T18:12:26.893Z,7.43
2018-05-27T18:14:52.648Z,8.10
2018-05-27T18:17:18.413Z,7.83
2018-05-27T18:19:44.183Z,8.00
2018-05-27T18:22:09.949Z,8.00
2018-05-27T18:24:35.701Z,8.57
2018-05-27T18:27:01.466Z,8.17
2018-05-27T18:29:27.241Z,7.73
2018-05-27T18:31:53.046Z,7.00
2018-05-27T18:34:18.817Z,8.40
2018-05-27T18:36:44.569Z,8.27
2018-05-27T18:39:10.328Z,8.57
2018-05-27T18:41:36.089Z,8.67
2018-05-27T18:44:01.881Z,8.87
2018-05-27T18:46:27.628Z,10.20
2018-05-27T18:48:53.404Z,10.30
2018-05-27T18:51:19.162Z,8.40
2018-05-27T18:53:44.929Z,8.50
2018-05-27T18:56:10.702Z,14.40
2018-05-27T18:58:36.473Z,8.90
2018-05-27T19:01:02.233Z,8.70
2018-05-27T19:03:28.019Z,7.77
2018-05-27T19:05:53.793Z,8.10
2018-05-27T19:08:19.558Z,9.10
2018-05-27T19:10:45.326Z,8.90
2018-05-27T19:13:11.158Z,8.90
2018-05-27T19:15:36.881Z,9.07
2018-05-27T19:18:02.654Z,7.57
2018-05-27T19:20:28.430Z,8.10
2018-05-27T19:22:54.192Z,8.70
2018-05-27T19:25:19.966Z,8.80
2018-05-27T19:27:45.741Z,8.13
2018-05-27T19:30:11.505Z,8.43
2018-05-27T19:32:37.264Z,8.87
2018-05-27T19:35:03.045Z,8.40
2018-05-27T19:37:28.809Z,8.93
2018-05-27T19:39:54.601Z,8.77
2018-05-27T19:42:20.363Z,9.83
2018-05-27T19:44:46.162Z,9.40
2018-05-27T19:47:11.917Z,9.60
2018-05-27T19:49:37.682Z,8.60
2018-05-27T19:52:03.462Z,8.60
2018-05-27T19:54:29.217Z,9.60
2018-05-27T19:56:54.986Z,7.80
2018-05-27T19:59:20.750Z,9.57
2018-05-27T20:01:46.513Z,8.97
2018-05-27T20:04:12.262Z,9.97
2018-05-27T20:06:38.045Z,9.60
2018-05-27T20:09:03.817Z,9.20
2018-05-27T20:11:29.594Z,8.93
2018-05-27T20:13:55.361Z,8.83
2018-05-27T20:16:21.146Z,9.07
2018-05-27T20:18:46.893Z,9.93
2018-05-27T20:21:12.673Z,9.20
2018-05-27T20:23:38.474Z,9.80
2018-05-27T20:26:04.217Z,9.63
2018-05-27T20:28:30.013Z,9.00
2018-05-27T20:30:55.784Z,9.60
2018-05-27T20:33:21.544Z,9.33
2018-05-27T20:35:47.297Z,9.47
2018-05-27T20:38:13.065Z,9.37
2018-05-27T20:40:38.818Z,10.07
2018-05-27T20:43:04.591Z,10.20
2018-05-27T20:45:30.353Z,9.27
2018-05-27T20:47:56.121Z,9.47
2018-05-27T20:50:21.886Z,9.90
2018-05-27T20:52:47.654Z,9.80
2018-05-27T20:55:13.413Z,9.27
2018-05-27T20:57:39.184Z,9.73
2018-05-27T21:00:04.961Z,9.97
2018-05-27T21:02:30.746Z,10.37
2018-05-27T21:04:56.524Z,9.30
2018-05-27T21:07:22.281Z,10.03
2018-05-27T21:09:48.048Z,9.97
2018-05-27T21:12:13.808Z,9.30
2018-05-27T21:14:39.568Z,10.87
2018-05-27T21:17:05.327Z,10.00
2018-05-27T21:19:31.090Z,9.47
2018-05-27T21:21:56.845Z,10.00
2018-05-27T21:24:22.601Z,10.07
2018-05-27T21:26:48.358Z,9.00
2018-05-27T21:29:14.137Z,8.90
2018-05-27T21:31:39.894Z,10.33
2018-05-27T21:34:05.642Z,10.40
2018-05-27T21:36:31.424Z,9.97
2018-05-27T21:38:57.191Z,9.73
2018-05-27T21:41:22.965Z,9.47
2018-05-27T21:43:48.727Z,10.27
2018-05-27T21:46:14.484Z,60.90
2018-05-27T21:48:40.238Z,46.80
2018-05-27T21:51:06.006Z,20.17
2018-05-27T21:53:31.775Z,20.30
2018-05-27T21:55:57.557Z,21.00
2018-05-27T21:58:23.324Z,24.97
2018-05-27T22:00:49.078Z,17.13
2018-05-27T22:03:14.837Z,12.80
2018-05-27T22:05:40.610Z,19.83
2018-05-27T22:08:06.374Z,15.20
2018-05-27T22:10:32.158Z,16.90
2018-05-27T22:12:57.928Z,29.33
2018-05-27T22:15:23.693Z,11.50
2018-05-27T22:17:49.466Z,11.47
2018-05-27T22:20:15.219Z,10.70
2018-05-27T22:22:40.985Z,10.33
2018-05-27T22:25:06.757Z,9.70
2018-05-27T22:27:32.530Z,11.40
2018-05-27T22:29:58.290Z,9.90
2018-05-27T22:32:24.054Z,10.60
2018-05-27T22:34:49.806Z,11.47
2018-05-27T22:37:15.581Z,10.67
2018-05-27T22:39:41.339Z,10.70
2018-05-27T22:42:07.103Z,11.63
2018-05-27T22:44:32.862Z,10.20
2018-05-27T22:46:58.628Z,10.57
2018-05-27T22:49:24.386Z,10.57
2018-05-27T22:51:50.133Z,10.23
2018-05-27T22:54:15.909Z,11.40
2018-05-27T22:56:41.666Z,10.67
2018-05-27T22:59:07.433Z,11.03
2018-05-27T23:01:33.199Z,10.93
2018-05-27T23:03:58.978Z,11.20
2018-05-27T23:06:24.759Z,10.93
2018-05-27T23:08:50.517Z,11.03
2018-05-27T23:11:16.273Z,10.50
2018-05-27T23:13:42.069Z,10.83
2018-05-27T23:16:07.826Z,11.40
2018-05-27T23:18:33.605Z,11.50
2018-05-27T23:20:59.369Z,11.70
2018-05-27T23:23:25.138Z,13.70
2018-05-27T23:25:50.901Z,11.97
2018-05-27T23:28:16.683Z,12.63
2018-05-27T23:30:42.434Z,57.07
2018-05-27T23:33:08.218Z,13.43
2018-05-27T23:35:33.976Z,14.13
2018-05-27T23:37:59.718Z,11.17
2018-05-27T23:40:25.474Z,10.53
2018-05-27T23:42:51.222Z,11.03
2018-05-27T23:45:16.985Z,11.43
2018-05-27T23:47:42.741Z,11.53
2018-05-27T23:50:08.497Z,11.33
2018-05-27T23:52:34.250Z,11.17
2018-05-27T23:55:00.010Z,10.53
2018-05-27T23:57:25.773Z,10.40
2018-05-27T23:59:51.554Z,11.97
